Atterbury, IL

8:45 PM CST on February 11, 2016 (GMT -0600)
Toboggan Hill | | Change Station
CLOSE
Current Station
Personal Weather Station
Location: Petersburg, IL
Elevation: 614 ft
Nearby Weather Stations

Elev 614 ft 40.01 °N, 89.86 °W | Updated 2 seconds ago

Overcast
Overcast
24.6 °F
Feels Like 25 °F
N
0.7
Wind Variable Wind from East
Gusts 1.6 mph

Today
High -- | Low -- °F
--% Chance of Precip.
Yesterday
High -- | Low -- °F
Precip. -- in
Pressure 30.34 in
Visibility 10.0 miles
Clouds Overcast 10000 ft
Windchill 25 °F
Dew Point 5 °F
Humidity 42%
Rainfall 0.00 in
Snow Depth Not available.
6:57 AM 5:30 PM
Waxing Crescent, 16% visible
METAR KSPI 120152Z 14005KT 10SM OVC100 M03/M11 A3031 RMK AO2 SLP272 T10331111
Pressure 30.34 in
Visibility 10.0 miles
Clouds Overcast 10000 ft
Windchill 25 °F
Dew Point 5 °F
Humidity 42%
Rainfall 0.00 in
Snow Depth Not available.
6:57 AM 5:30 PM
Waxing Crescent, 16% visible
METAR KSPI 120152Z 14005KT 10SM OVC100 M03/M11 A3031 RMK AO2 SLP272 T10331111

10-Day Weather Forecast

Almanac

Astronomy

Feb. 11, 2016 Rise Set
Actual Time
Civil Twilight
Nautical Twilight
Astronomical Twilight
Moon
Length of Visible Light
Length of Day
Tomorrow will be .
, % of the Moon is Illuminated

Today's Extremes

State Highs State Lows

Community

WunderPhotos

Upload Photos

1,892,226 photos uploaded!

WunderBlog® & News

Nearby

Air Quality

  Air Quality AQ Index Pollutant
Not available.

Snow Depth

Station Depth Elevation

Earthquake Activity

City Distance Mag. Time & Date
Minimum magnitude displayed is 2.5.

Coastal Water Temperatures

Place Temperature

Stations

Nearby Weather Stations

Station Location Temp. Windchill Dew Point Humidity Wind Precip. Elev Updated Type
                   

Watches & Warnings

There are currently no watches in effect.